Oceania — SQOC — position and weather

sailwx.info

Track history (hours):
 
Tides and Currents Weather Stations Pressure Air Temp Water Temp Dewpoint Dewpoint Depression Visibility Wind Speed Wind Dir Waves Ship Positions

Oceanographic research ship Oceania (Poland)

Detailed information on ship capabilities available from University of Delaware's Ocean Information Center and ARCUS's ALIAS (Arctic Logistics Information and Support) project.

Last reported at 2020-Aug-08 17:30 UTC. Time now 2020-Aug-10 02:35 UTC.
Position N 79°17' E 010°47'.

Length 49 m; beam 9 m.

Type: Sailing vessel. MMSI: 261000142.

Date/timePositionNaut miles runAvg speedWind from/ knotsBaromVisibWave heightAir tempDewpointWater temp
2020-Aug-08 17:30N 79°17' E 010°47'22 7.5
2020-Aug-08 14:30N 78°59' E 011°56'0 0.1
2020-Aug-08 13:00N 78°59' E 011°57'0 0.1
2020-Aug-08 11:30N 78°59' E 011°57'0 0.3
2020-Aug-08 11:00N 78°60' E 011°57'4 2.6
2020-Aug-08 09:29N 78°56' E 011°56'0 0.0
2020-Aug-08 08:59N 78°56' E 011°56'0 0.0
2020-Aug-08 07:59N 78°56' E 011°56'2 0.5
2020-Aug-08 05:00N 78°56' E 012°04'1 1.0
2020-Aug-08 04:00N 78°56' E 012°08'3 5.6
2020-Aug-08 03:30N 78°57' E 011°56'2 3.9
2020-Aug-08 03:00N 78°58' E 011°48'5 2.3
2020-Aug-08 01:00N 79°00' E 011°26'1 0.6
2020-Aug-08 00:00N 79°01' E 011°28'3 1.5
2020-Aug-07 22:00N 79°03' E 011°36'5 2.1
2020-Aug-07 19:28N 78°60' E 011°57'6 3.2
2020-Aug-07 17:28N 78°56' E 012°24'2 1.7
2020-Aug-07 16:30N 78°57' E 012°20'2 0.8
2020-Aug-07 14:00N 78°56' E 012°11'2 1.8
2020-Aug-07 12:59N 78°55' E 012°15'0 0.0
2020-Aug-07 12:29N 78°55' E 012°15'0 0.0
2020-Aug-07 10:29N 78°55' E 012°15'0 0.0
2020-Aug-07 09:59N 78°55' E 012°15'3 1.0
2020-Aug-07 06:30N 78°56' E 012°01'2 1.1
2020-Aug-07 05:00N 78°57' E 011°54'0 0.4
2020-Aug-07 04:30N 78°57' E 011°55'2 3.3
2020-Aug-07 04:00N 78°58' E 011°48'2 3.0
2020-Aug-07 03:30N 78°59' E 011°40'4 1.4
2020-Aug-07 01:00N 79°01' E 011°26'1 0.8
2020-Aug-06 23:30N 79°01' E 011°20'3 1.5
2020-Aug-06 21:30N 79°02' E 011°05'6 4.1
2020-Aug-06 20:00N 79°01' E 010°34'12 3.0
2020-Aug-06 16:00N 78°58' E 009°31'7 2.7
2020-Aug-06 13:29N 78°57' E 008°56'14 1.9
2020-Aug-06 06:01N 78°54' E 007°45'3 5.1
2020-Aug-06 05:30N 78°55' E 007°58'9 8.5
2020-Aug-06 04:30N 78°56' E 008°42'4 8.5
2020-Aug-06 04:00N 78°57' E 009°04'19 9.4
2020-Aug-06 02:00N 78°60' E 010°41'510.1
2020-Aug-06 01:29N 78°60' E 011°08'10 3.2
2020-Aug-05 22:29N 78°60' E 011°59'0 0.0
2020-Aug-05 19:59N 78°60' E 011°59'0 0.0
2020-Aug-05 19:29N 78°60' E 011°59'5 2.4
2020-Aug-05 17:28N 78°59' E 011°34'4 1.3
2020-Aug-05 14:00N 78°58' E 011°55'1 0.8
2020-Aug-05 12:58N 78°57' E 011°58'0 0.0
2020-Aug-05 12:28N 78°57' E 011°58'3 1.0
2020-Aug-05 09:29N 78°57' E 012°14'2 0.6
2020-Aug-05 06:29N 78°56' E 012°07'5 2.4
2020-Aug-05 04:29N 79°00' E 011°57'3 0.6
2020-Aug-05 00:30N 78°60' E 011°43'18 9.2
2020-Aug-04 22:30N 78°55' E 010°11'12 7.8
2020-Aug-04 21:00N 78°50' E 009°16'5 5.0
2020-Aug-04 20:00N 78°50' E 008°50'7 2.2
2020-Aug-04 16:59N 78°50' E 008°15'  
2020-Jul-30 10:30N 76°31' E 013°27'7 4.6
2020-Jul-30 09:00N 76°31' E 013°56'1 1.4
2020-Jul-30 08:30N 76°30' E 013°59'11 4.2
2020-Jul-30 05:57N 76°30' E 014°45'10 5.4
2020-Jul-30 04:00N 76°30' E 015°30'61 8.7
2020-Jul-29 21:00N 77°26' E 013°42'5 9.6
2020-Jul-29 20:30N 77°31' E 013°42'10 9.4
2020-Jul-29 19:29N 77°38' E 014°08'  
Track history (hours):
 
Tides and Currents Weather Stations Pressure Air Temp Water Temp Dewpoint Dewpoint Depression Visibility Wind Speed Wind Dir Waves Ship Positions

Oceanographic research ship Oceania (Poland)

Detailed information on ship capabilities available from University of Delaware's Ocean Information Center and ARCUS's ALIAS (Arctic Logistics Information and Support) project.

Last reported at 2020-Aug-08 17:30 UTC. Time now 2020-Aug-10 02:35 UTC.
Position N 79°17' E 010°47'.

Length 49 m; beam 9 m.

Type: Sailing vessel. MMSI: 261000142.

Date/timePositionNaut miles runAvg speedWind from/ knotsBaromVisibWave heightAir tempDewpointWater temp
2020-Aug-08 17:30N 79°17' E 010°47'22 7.5
2020-Aug-08 14:30N 78°59' E 011°56'0 0.1
2020-Aug-08 13:00N 78°59' E 011°57'0 0.1
2020-Aug-08 11:30N 78°59' E 011°57'0 0.3
2020-Aug-08 11:00N 78°60' E 011°57'4 2.6
2020-Aug-08 09:29N 78°56' E 011°56'0 0.0
2020-Aug-08 08:59N 78°56' E 011°56'0 0.0
2020-Aug-08 07:59N 78°56' E 011°56'2 0.5
2020-Aug-08 05:00N 78°56' E 012°04'1 1.0
2020-Aug-08 04:00N 78°56' E 012°08'3 5.6
2020-Aug-08 03:30N 78°57' E 011°56'2 3.9
2020-Aug-08 03:00N 78°58' E 011°48'5 2.3
2020-Aug-08 01:00N 79°00' E 011°26'1 0.6
2020-Aug-08 00:00N 79°01' E 011°28'3 1.5
2020-Aug-07 22:00N 79°03' E 011°36'5 2.1
2020-Aug-07 19:28N 78°60' E 011°57'6 3.2
2020-Aug-07 17:28N 78°56' E 012°24'2 1.7
2020-Aug-07 16:30N 78°57' E 012°20'2 0.8
2020-Aug-07 14:00N 78°56' E 012°11'2 1.8
2020-Aug-07 12:59N 78°55' E 012°15'0 0.0
2020-Aug-07 12:29N 78°55' E 012°15'0 0.0
2020-Aug-07 10:29N 78°55' E 012°15'0 0.0
2020-Aug-07 09:59N 78°55' E 012°15'3 1.0
2020-Aug-07 06:30N 78°56' E 012°01'2 1.1
2020-Aug-07 05:00N 78°57' E 011°54'0 0.4
2020-Aug-07 04:30N 78°57' E 011°55'2 3.3
2020-Aug-07 04:00N 78°58' E 011°48'2 3.0
2020-Aug-07 03:30N 78°59' E 011°40'4 1.4
2020-Aug-07 01:00N 79°01' E 011°26'1 0.8
2020-Aug-06 23:30N 79°01' E 011°20'3 1.5
2020-Aug-06 21:30N 79°02' E 011°05'6 4.1
2020-Aug-06 20:00N 79°01' E 010°34'12 3.0
2020-Aug-06 16:00N 78°58' E 009°31'7 2.7
2020-Aug-06 13:29N 78°57' E 008°56'14 1.9
2020-Aug-06 06:01N 78°54' E 007°45'3 5.1
2020-Aug-06 05:30N 78°55' E 007°58'9 8.5
2020-Aug-06 04:30N 78°56' E 008°42'4 8.5
2020-Aug-06 04:00N 78°57' E 009°04'19 9.4
2020-Aug-06 02:00N 78°60' E 010°41'510.1
2020-Aug-06 01:29N 78°60' E 011°08'10 3.2
2020-Aug-05 22:29N 78°60' E 011°59'0 0.0
2020-Aug-05 19:59N 78°60' E 011°59'0 0.0
2020-Aug-05 19:29N 78°60' E 011°59'5 2.4
2020-Aug-05 17:28N 78°59' E 011°34'4 1.3
2020-Aug-05 14:00N 78°58' E 011°55'1 0.8
2020-Aug-05 12:58N 78°57' E 011°58'0 0.0
2020-Aug-05 12:28N 78°57' E 011°58'3 1.0
2020-Aug-05 09:29N 78°57' E 012°14'2 0.6
2020-Aug-05 06:29N 78°56' E 012°07'5 2.4
2020-Aug-05 04:29N 79°00' E 011°57'3 0.6
2020-Aug-05 00:30N 78°60' E 011°43'18 9.2
2020-Aug-04 22:30N 78°55' E 010°11'12 7.8
2020-Aug-04 21:00N 78°50' E 009°16'5 5.0
2020-Aug-04 20:00N 78°50' E 008°50'7 2.2
2020-Aug-04 16:59N 78°50' E 008°15'  
2020-Jul-30 10:30N 76°31' E 013°27'7 4.6
2020-Jul-30 09:00N 76°31' E 013°56'1 1.4
2020-Jul-30 08:30N 76°30' E 013°59'11 4.2
2020-Jul-30 05:57N 76°30' E 014°45'10 5.4
2020-Jul-30 04:00N 76°30' E 015°30'61 8.7
2020-Jul-29 21:00N 77°26' E 013°42'5 9.6
2020-Jul-29 20:30N 77°31' E 013°42'10 9.4
2020-Jul-29 19:29N 77°38' E 014°08'  

Dump ship's entire track history